RJCK

Kushiro Airport

Kushiro, Japan
TAF RJCK 210510Z 2106/2212 24006KT 9999 FEW010 SCT020 TEMPO 2106/2109 FEW008 BKN025 FEW025CB BECMG 2114/2116 01003KT BECMG 2121/2200 13005KT BECMG 2203/2206 05008KT TEMPO 2203/2209 FEW008 BKN025 FEW025CB
Issued Valid From Valid To
Jul-21 @ 05:10 UTC
(5 hours ago)
Jul-21 @ 06:00 UTC
(4 hours ago)
Jul-22 @ 12:00 UTC
(-1 days ago)
Jul-21 @ 06:00 to Jul-21 @ 14:00
TAF RJCK 210510Z 2106/2212 24006KT 9999 FEW010 SCT020
Wind Visibility Clouds
240° at 6 knots 10,000+ meters
  • Few at 1,000' AGL
  • Scattered at 2,000' AGL
Expired Click to View Jul-21 @ 06:00 to Jul-21 @ 09:00
TEMPO 2106/2109 FEW008 BKN025 FEW025CB
Clouds
  • Few at 800' AGL
  • Broken at 2,500' AGL
  • Few at 2,500' AGL
Becoming Jul-21 @ 14:00 to Jul-21 @ 21:00
BECMG 2114/2116 01003KT
Wind Visibility Clouds
10° at 3 knots 10,000+ meters
  • Few at 1,000' AGL
  • Scattered at 2,000' AGL
Becoming Jul-21 @ 21:00 to Jul-22 @ 03:00
BECMG 2121/2200 13005KT
Wind Visibility Clouds
130° at 5 knots 10,000+ meters
  • Few at 1,000' AGL
  • Scattered at 2,000' AGL
Temporary Jul-22 @ 03:00 to Jul-22 @ 09:00
TEMPO 2203/2209 FEW008 BKN025 FEW025CB
Clouds
  • Few at 800' AGL
  • Broken at 2,500' AGL
  • Few at 2,500' AGL
Becoming Jul-22 @ 03:00 to Jul-22 @ 12:00
BECMG 2203/2206 05008KT
Wind Visibility Clouds
50° at 8 knots 10,000+ meters
  • Few at 1,000' AGL
  • Scattered at 2,000' AGL
TAF RJCK 210510Z 2106/2212 24006KT 9999 FEW010 SCT020 TEMPO 2106/2109 FEW008 BKN025 FEW025CB BECMG 2114/2116 01003KT BECMG 2121/2200 13005KT BECMG 2203/2206 05008KT TEMPO 2203/2209 FEW008 BKN025 FEW025CB
Issued Jul-21 @ 05:10 UTC
(5 hours ago)
Valid From Jul-21 @ 06:00 UTC
(4 hours ago)
Valid To Jul-22 @ 12:00 UTC
(-1 days ago)
Jul-21 @ 06:00 - Jul-21 @ 14:00
Wind Visibility
240° at 6 knots 10,000+ meters
Clouds
  • Few at 1,000' AGL
  • Scattered at 2,000' AGL
Jul-21 @ 06:00 - Jul-21 @ 09:00
Clouds
  • Few at 800' AGL
  • Broken at 2,500' AGL
  • Few at 2,500' AGL
Becoming Jul-21 @ 14:00 - Jul-21 @ 21:00
Wind Visibility
10° at 3 knots 10,000+ meters
Clouds
  • Few at 1,000' AGL
  • Scattered at 2,000' AGL
Becoming Jul-21 @ 21:00 - Jul-22 @ 03:00
Wind Visibility
130° at 5 knots 10,000+ meters
Clouds
  • Few at 1,000' AGL
  • Scattered at 2,000' AGL
Temporary Jul-22 @ 03:00 - Jul-22 @ 09:00
Clouds
  • Few at 800' AGL
  • Broken at 2,500' AGL
  • Few at 2,500' AGL
Becoming Jul-22 @ 03:00 - Jul-22 @ 12:00
Wind Visibility
50° at 8 knots 10,000+ meters
Clouds
  • Few at 1,000' AGL
  • Scattered at 2,000' AGL